Time;durP1;ratioP1;P1;durP2;ratioP2;P2;SDS_P1;SDS_P2;PMS_P1;PMS_P2;Temp;Humidity;BMP_temperature;BMP_pressure;BME280_temperature;BME280_humidity;BME280_pressure;Samples;Min_cycle;Max_cycle;Signal;HPM_P1;HPM_P2
2021/10/11 00:00:06;;;;;;;;;26.00;22.25;;;;;21.40;44.37;102274.13;5016323;28;45340;-51
2021/10/11 00:02:31;;;;;;;;;29.25;23.50;;;;;21.40;44.02;102271.50;5016454;28;45409;-52
2021/10/11 00:04:57;;;;;;;;;23.00;22.00;;;;;21.41;44.01;102269.72;5016391;28;45579;-53
2021/10/11 00:07:22;;;;;;;;;29.00;24.75;;;;;21.40;44.08;102262.75;5016139;28;46236;-51
2021/10/11 00:09:47;;;;;;;;;27.00;25.00;;;;;21.40;43.81;102260.09;5016682;28;45609;-53
2021/10/11 00:12:13;;;;;;;;;28.00;25.00;;;;;21.40;44.45;102266.22;5015732;28;45475;-50
2021/10/11 00:14:38;;;;;;;;;32.50;26.50;;;;;21.39;44.08;102267.13;4998609;28;45329;-54
2021/10/11 00:17:03;;;;;;;;;28.50;27.00;;;;;21.39;44.33;102261.00;5016066;28;46133;-55
2021/10/11 00:19:33;;;;;;;;;27.50;26.50;;;;;21.38;44.16;102262.81;5016080;28;45389;-53
2021/10/11 00:21:59;;;;;;;;;28.50;25.75;;;;;21.39;44.09;102268.94;4998392;28;45372;-55
2021/10/11 00:24:24;;;;;;;;;27.00;25.75;;;;;21.39;44.09;102266.28;5016444;28;45497;-52
2021/10/11 00:26:50;;;;;;;;;27.25;24.75;;;;;21.38;44.55;102267.19;5016079;28;46772;-52
2021/10/11 00:29:15;;;;;;;;;29.50;25.75;;;;;21.37;44.16;102270.75;5016086;28;46146;-53
2021/10/11 00:31:40;;;;;;;;;23.50;21.50;;;;;21.38;44.56;102267.19;5016161;28;45429;-53
2021/10/11 00:34:06;;;;;;;;;24.50;24.50;;;;;21.37;44.44;102271.63;5016157;28;45259;-52
2021/10/11 00:36:31;;;;;;;;;27.00;25.50;;;;;21.38;44.45;102272.47;5016220;28;45297;-53
2021/10/11 00:38:56;;;;;;;;;23.50;23.50;;;;;21.37;44.29;102270.75;5019421;28;45487;-55
2021/10/11 00:41:22;;;;;;;;;25.75;24.00;;;;;21.36;44.44;102261.13;5035228;28;45315;-54
2021/10/11 00:43:48;;;;;;;;;29.00;25.50;;;;;21.37;44.50;102262.84;5019718;28;45633;-52
2021/10/11 00:46:13;;;;;;;;;27.25;24.00;;;;;21.36;44.59;102261.13;5019211;28;45404;-52
2021/10/11 00:48:38;;;;;;;;;28.25;23.75;;;;;21.36;44.49;102263.75;5019283;28;45301;-52
2021/10/11 00:51:08;;;;;;;;;26.00;23.75;;;;;21.37;44.59;102265.47;5019253;28;45964;-55
2021/10/11 00:53:33;;;;;;;;;26.00;24.00;;;;;21.35;44.19;102273.47;5019706;28;45525;-55
2021/10/11 00:55:59;;;;;;;;;23.25;22.75;;;;;21.35;44.52;102265.53;5018972;28;46572;-54
2021/10/11 00:58:24;;;;;;;;;28.50;23.00;;;;;21.34;44.41;102263.81;5019182;28;45717;-55
2021/10/11 01:00:50;;;;;;;;;25.75;25.75;;;;;21.34;44.42;102255.91;5019592;28;45246;-54
2021/10/11 01:03:15;;;;;;;;;27.75;26.75;;;;;21.34;44.67;102257.66;5019244;28;45663;-54
2021/10/11 01:05:41;;;;;;;;;25.00;21.25;;;;;21.35;44.45;102256.75;5018933;28;45378;-54
2021/10/11 01:08:06;;;;;;;;;22.50;22.00;;;;;21.35;44.65;102254.13;5018984;28;45290;-54
2021/10/11 01:10:32;;;;;;;;;26.00;24.50;;;;;21.35;44.44;102254.13;5019202;28;45281;-54
2021/10/11 01:12:57;;;;;;;;;26.25;24.00;;;;;21.33;44.79;102248.91;5019354;28;45302;-53
2021/10/11 01:15:23;;;;;;;;;30.00;25.25;;;;;21.33;44.44;102248.91;5019294;28;45561;-55
2021/10/11 01:17:48;;;;;;;;;21.75;21.00;;;;;21.34;44.42;102253.28;5018658;28;45434;-55
2021/10/11 01:20:14;;;;;;;;;24.25;23.75;;;;;21.33;44.28;102248.91;5018976;28;45488;-54
2021/10/11 01:22:43;;;;;;;;;24.75;24.75;;;;;21.34;44.60;102257.66;5019212;28;45620;-54
2021/10/11 01:25:12;;;;;;;;;30.50;27.25;;;;;21.33;44.43;102255.97;5018638;28;47637;-55
2021/10/11 01:27:37;;;;;;;;;28.50;23.75;;;;;21.33;44.49;102261.25;5018808;28;45288;-55
2021/10/11 01:30:05;;;;;;;;;20.25;20.25;;;;;21.33;44.83;102256.81;5018916;28;45357;-55
2021/10/11 01:32:30;;;;;;;;;22.25;22.25;;;;;21.32;44.76;102252.47;5018894;28;45317;-55
2021/10/11 01:34:56;;;;;;;;;27.25;23.50;;;;;21.32;44.79;102252.47;5018554;28;45564;-55
2021/10/11 01:37:21;;;;;;;;;28.75;26.25;;;;;21.31;44.54;102246.34;5018884;28;45391;-55
2021/10/11 01:39:47;;;;;;;;;29.00;23.50;;;;;21.31;44.52;102246.34;5018742;28;45338;-55
2021/10/11 01:42:13;;;;;;;;;27.00;23.25;;;;;21.31;44.59;102235.78;5018838;28;45281;-54
2021/10/11 01:44:39;;;;;;;;;22.75;20.75;;;;;21.32;45.02;102234.00;5018474;28;45841;-54
2021/10/11 01:47:05;;;;;;;;;23.50;20.00;;;;;21.31;44.73;102235.78;5018306;28;45890;-56
2021/10/11 01:49:30;;;;;;;;;21.00;20.00;;;;;21.31;44.85;102233.16;5017707;28;45225;-54
2021/10/11 01:51:56;;;;;;;;;26.50;26.50;;;;;21.30;44.69;102220.88;5018973;28;45217;-55
2021/10/11 01:54:21;;;;;;;;;27.25;23.75;;;;;21.31;45.03;102229.63;5018457;28;45648;-53
2021/10/11 01:56:48;;;;;;;;;25.50;24.25;;;;;21.30;44.64;102235.81;5033497;28;49613;-55
2021/10/11 01:59:13;;;;;;;;;26.25;24.25;;;;;21.29;45.09;102231.47;5018462;28;45456;-54
2021/10/11 02:01:38;;;;;;;;;23.25;22.00;;;;;21.30;44.82;102246.38;5018398;28;45493;-55
2021/10/11 02:04:04;;;;;;;;;22.75;21.75;;;;;21.30;44.89;102244.63;5017829;28;46020;-53
2021/10/11 02:06:29;;;;;;;;;24.75;22.50;;;;;21.29;44.82;102247.28;5018044;28;45577;-54
2021/10/11 02:08:55;;;;;;;;;22.75;21.75;;;;;21.29;44.76;102258.72;5018595;28;45436;-54
2021/10/11 02:11:20;;;;;;;;;27.00;25.00;;;;;21.29;44.65;102249.94;5033571;28;45532;-55
2021/10/11 02:13:45;;;;;;;;;27.75;24.00;;;;;21.29;44.83;102248.16;5018051;28;45506;-54
2021/10/11 02:16:11;;;;;;;;;24.00;20.50;;;;;21.29;45.09;102239.38;5000073;28;45457;-53
2021/10/11 02:18:36;;;;;;;;;22.25;21.25;;;;;21.27;44.72;102236.81;5018047;28;45462;-56
2021/10/11 02:21:01;;;;;;;;;24.25;23.50;;;;;21.28;45.04;102241.16;5018243;28;45647;-53
2021/10/11 02:23:27;;;;;;;;;23.75;23.00;;;;;21.29;45.00;102234.97;5018068;28;45357;-54
2021/10/11 02:25:53;;;;;;;;;24.50;23.50;;;;;21.29;45.09;102239.38;5017786;28;45428;-55
2021/10/11 02:28:18;;;;;;;;;22.75;22.50;;;;;21.26;44.96;102248.28;5018068;28;45270;-53
2021/10/11 02:30:44;;;;;;;;;19.00;16.00;;;;;21.27;45.15;102244.72;5018027;28;45590;-53
2021/10/11 02:33:09;;;;;;;;;21.75;21.00;;;;;21.27;45.04;102244.72;5017681;28;46587;-53
2021/10/11 02:35:35;;;;;;;;;20.25;19.00;;;;;21.26;44.77;102237.72;4999920;28;45338;-55
2021/10/11 02:38:00;;;;;;;;;22.00;21.00;;;;;21.27;45.04;102231.53;5017917;28;45312;-54
2021/10/11 02:40:26;;;;;;;;;24.50;22.00;;;;;21.27;45.18;102223.63;5018300;28;45191;-53
2021/10/11 02:42:51;;;;;;;;;24.25;20.25;;;;;21.27;44.99;102217.50;5017559;28;45347;-53
2021/10/11 02:45:16;;;;;;;;;21.00;19.00;;;;;21.27;45.30;102217.50;5017349;28;45333;-53
2021/10/11 02:47:42;;;;;;;;;23.25;20.75;;;;;21.26;44.93;102210.50;5017624;28;45384;-54
2021/10/11 02:50:07;;;;;;;;;20.25;19.50;;;;;21.23;44.93;102216.72;5017761;28;45537;-51
2021/10/11 02:52:33;;;;;;;;;26.75;25.75;;;;;21.27;45.26;102222.78;5017237;28;46350;-49
2021/10/11 02:55:03;;;;;;;;;26.25;23.00;;;;;21.27;45.02;102222.78;5017720;28;45353;-51
2021/10/11 02:57:29;;;;;;;;;17.00;17.00;;;;;21.25;45.38;102214.91;5017852;28;45222;-55
2021/10/11 02:59:54;;;;;;;;;22.75;20.75;;;;;21.25;45.44;102207.00;5017980;28;45220;-54
2021/10/11 03:02:19;;;;;;;;;21.50;19.25;;;;;21.24;45.04;102207.91;5017212;28;46346;-55
2021/10/11 03:04:45;;;;;;;;;25.25;19.75;;;;;21.25;45.15;102209.63;5016914;28;45227;-55
2021/10/11 03:07:11;;;;;;;;;21.00;21.00;;;;;21.24;45.47;102205.28;5017162;28;45263;-55
2021/10/11 03:09:36;;;;;;;;;20.50;19.75;;;;;21.25;45.31;102199.06;5017393;28;45622;-55
2021/10/11 03:12:02;;;;;;;;;22.25;21.75;;;;;21.26;45.38;102206.06;5017052;28;45365;-54
2021/10/11 03:14:28;;;;;;;;;23.25;22.25;;;;;21.24;45.10;102205.28;5017390;28;45867;-55
2021/10/11 03:16:53;;;;;;;;;20.75;19.50;;;;;21.25;45.25;102201.72;4999441;28;45483;-55
2021/10/11 03:19:19;;;;;;;;;22.00;19.50;;;;;21.24;45.50;102210.53;4999657;28;45373;-54
2021/10/11 03:21:44;;;;;;;;;25.50;21.75;;;;;21.24;45.56;102218.44;5016674;28;49037;-55
2021/10/11 03:24:09;;;;;;;;;20.00;16.75;;;;;21.25;45.36;102216.69;5016920;28;45279;-55
2021/10/11 03:26:35;;;;;;;;;18.75;18.50;;;;;21.23;45.37;102203.53;5016870;28;45360;-55
2021/10/11 03:29:00;;;;;;;;;21.50;20.25;;;;;21.25;45.37;102214.91;5017371;28;45425;-54
2021/10/11 03:31:25;;;;;;;;;18.00;15.50;;;;;21.25;45.60;102221.97;5016790;28;46439;-54
2021/10/11 03:33:51;;;;;;;;;23.00;21.25;;;;;21.27;45.26;102222.78;5016994;28;45971;-55
2021/10/11 03:36:16;;;;;;;;;16.50;15.25;;;;;21.24;45.59;102218.44;5016931;28;45734;-55
2021/10/11 03:38:41;;;;;;;;;24.50;19.75;;;;;21.23;45.41;102219.38;4999287;28;45666;-55
2021/10/11 03:41:07;;;;;;;;;19.00;17.00;;;;;21.24;45.63;102223.72;5016335;28;55224;-55
2021/10/11 03:43:32;;;;;;;;;23.25;20.25;;;;;21.24;45.33;102221.09;5016564;28;45472;-55
2021/10/11 03:45:58;;;;;;;;;18.25;18.00;;;;;21.24;45.38;102220.25;5017060;28;45313;-55
2021/10/11 03:48:23;;;;;;;;;20.25;19.25;;;;;21.21;45.25;102215.94;5016768;28;45267;-55
2021/10/11 03:50:49;;;;;;;;;17.75;17.50;;;;;21.23;45.57;102232.56;4998659;28;47199;-55
2021/10/11 03:53:15;;;;;;;;;18.50;18.00;;;;;21.24;45.73;102233.44;5016532;28;45416;-54
2021/10/11 03:55:41;;;;;;;;;20.25;19.00;;;;;21.22;45.46;102228.19;5016525;28;45286;-54
2021/10/11 03:58:06;;;;;;;;;18.75;17.75;;;;;21.21;45.08;102234.41;5016702;28;45524;-53
2021/10/11 04:00:32;;;;;;;;;23.50;19.25;;;;;21.23;45.61;102227.28;5016724;28;46437;-56
2021/10/11 04:03:01;;;;;;;;;20.50;19.00;;;;;21.23;45.53;102232.56;5016894;28;45542;-55
2021/10/11 04:05:27;;;;;;;;;18.50;17.50;;;;;21.23;45.25;102232.56;4998592;28;45343;-54
2021/10/11 04:07:55;;;;;;;;;23.50;18.00;;;;;21.23;45.48;102227.28;5016653;28;45338;-55
2021/10/11 04:10:26;;;;;;;;;18.75;17.75;;;;;21.23;45.66;102227.28;5016172;28;47477;-55
2021/10/11 04:12:55;;;;;;;;;17.25;17.25;;;;;21.22;45.56;102211.53;5015549;28;46119;-56
2021/10/11 04:15:21;;;;;;;;;15.00;15.00;;;;;21.22;45.37;102216.78;5016297;28;45225;-53
2021/10/11 04:17:48;;;;;;;;;19.50;18.25;;;;;21.23;45.59;102227.28;5016560;28;45287;-54
2021/10/11 04:20:14;;;;;;;;;19.75;17.25;;;;;21.21;45.78;102229.13;5016134;28;47310;-52
2021/10/11 04:22:40;;;;;;;;;15.00;13.75;;;;;21.23;45.88;102229.91;5016119;28;45812;-55
2021/10/11 04:25:06;;;;;;;;;16.00;14.75;;;;;21.23;45.78;102236.97;5016248;28;45484;-54
2021/10/11 04:27:32;;;;;;;;;20.75;18.00;;;;;21.22;45.76;102235.25;5016627;28;45506;-49
2021/10/11 04:29:57;;;;;;;;;19.00;17.25;;;;;21.23;45.81;102231.69;5016010;28;45752;-52
2021/10/11 04:32:22;;;;;;;;;19.00;16.50;;;;;21.22;45.99;102230.81;5016022;28;45451;-54
2021/10/11 04:34:48;;;;;;;;;34.50;33.00;;;;;21.21;45.99;102233.53;5016201;28;45408;-54
2021/10/11 04:37:13;;;;;;;;;32.00;29.75;;;;;21.23;45.93;102237.81;5016274;28;45175;-53
2021/10/11 04:39:38;;;;;;;;;44.50;37.25;;;;;21.22;45.78;102240.53;5015847;28;45712;-54
2021/10/11 04:42:04;;;;;;;;;37.25;33.75;;;;;21.21;45.95;102239.69;5016087;28;45384;-55
2021/10/11 04:44:29;;;;;;;;;42.75;36.00;;;;;21.22;46.18;102241.38;5016086;28;45328;-55
2021/10/11 04:46:55;;;;;;;;;44.00;36.25;;;;;21.22;46.18;102241.38;5016151;28;45345;-52
2021/10/11 04:49:20;;;;;;;;;47.00;40.50;;;;;21.23;46.02;102251.00;5015696;28;46691;-52
2021/10/11 04:51:45;;;;;;;;;48.75;41.50;;;;;21.24;46.03;102249.25;5015892;28;45367;-51
2021/10/11 04:54:13;;;;;;;;;55.00;44.75;;;;;21.23;46.26;102247.53;5015893;28;45292;-52
2021/10/11 04:56:39;;;;;;;;;49.25;40.00;;;;;21.22;46.13;102243.16;5015848;28;45390;-51
2021/10/11 04:59:04;;;;;;;;;49.25;41.75;;;;;21.22;46.20;102249.28;5016030;28;46474;-55
2021/10/11 05:01:29;;;;;;;;;50.67;42.00;;;;;21.23;46.27;102256.28;5015688;28;45439;-55
2021/10/11 05:03:55;;;;;;;;;49.00;39.33;;;;;21.22;46.17;102257.19;5015052;28;55107;-55
2021/10/11 05:06:20;;;;;;;;;46.67;39.33;;;;;21.23;46.12;102255.44;5015607;28;45596;-56
2021/10/11 05:08:45;;;;;;;;;53.67;42.33;;;;;21.22;46.15;102256.34;5015261;28;52625;-50
2021/10/11 05:11:11;;;;;;;;;51.00;41.33;;;;;21.21;46.34;102260.78;5015327;28;58864;-51
2021/10/11 05:13:36;;;;;;;;;46.75;39.75;;;;;21.22;45.96;102253.72;5014710;28;45349;-53
2021/10/11 05:16:02;;;;;;;;;42.75;37.75;;;;;21.22;46.25;102251.06;5016101;28;45396;-54
2021/10/11 05:18:27;;;;;;;;;46.25;39.50;;;;;21.22;45.88;102254.56;5015429;28;45433;-53
2021/10/11 05:20:52;;;;;;;;;46.25;39.00;;;;;21.20;46.04;102248.50;5015424;28;45350;-52
2021/10/11 05:23:18;;;;;;;;;42.00;37.25;;;;;21.20;46.42;102253.78;5015590;28;45306;-55
2021/10/11 05:25:45;;;;;;;;;46.75;38.25;;;;;21.20;46.33;102243.22;5018788;28;45583;-54
2021/10/11 05:28:10;;;;;;;;;43.00;38.00;;;;;21.19;46.15;102244.16;5018810;28;45759;-56
2021/10/11 05:30:39;;;;;;;;;39.25;35.75;;;;;21.19;46.15;102252.06;5019085;28;45270;-55
2021/10/11 05:33:05;;;;;;;;;41.00;34.75;;;;;21.21;46.16;102262.53;5019161;28;45415;-53
2021/10/11 05:35:30;;;;;;;;;40.50;35.25;;;;;21.19;46.29;102262.59;5019055;28;45341;-54
2021/10/11 05:37:55;;;;;;;;;43.75;35.50;;;;;21.19;46.14;102262.59;5018585;28;45464;-53
2021/10/11 05:40:21;;;;;;;;;40.75;36.00;;;;;21.20;46.30;102253.78;5018585;28;45420;-52
2021/10/11 05:42:46;;;;;;;;;45.25;37.00;;;;;21.20;46.34;102263.44;5018732;28;45341;-52
2021/10/11 05:45:11;;;;;;;;;44.00;36.00;;;;;21.19;46.21;102262.59;5018688;28;45277;-52
2021/10/11 05:47:38;;;;;;;;;42.00;36.75;;;;;21.19;46.53;102259.97;5018712;28;45314;-52
2021/10/11 05:50:04;;;;;;;;;36.25;33.25;;;;;21.20;46.33;102269.59;5018870;28;45427;-54
2021/10/11 05:52:29;;;;;;;;;41.00;34.75;;;;;21.17;46.08;102259.16;5018557;28;45259;-52
2021/10/11 05:54:54;;;;;;;;;36.25;32.50;;;;;21.17;46.17;102262.63;5018603;28;45229;-51
2021/10/11 05:57:20;;;;;;;;;37.00;33.50;;;;;21.20;46.41;102274.00;5018186;28;46101;-52
2021/10/11 05:59:45;;;;;;;;;31.50;30.50;;;;;21.17;46.47;102277.59;5018081;28;45267;-53
2021/10/11 06:02:10;;;;;;;;;39.00;34.00;;;;;21.19;46.19;102278.41;5018292;28;45267;-52
2021/10/11 06:04:36;;;;;;;;;38.00;33.25;;;;;21.17;46.55;102280.25;5018662;28;45164;-54
2021/10/11 06:07:01;;;;;;;;;36.25;33.25;;;;;21.18;46.16;102281.97;5018015;28;46906;-56
2021/10/11 06:09:26;;;;;;;;;37.75;32.50;;;;;21.19;46.29;102288.09;5000245;28;45461;-55
2021/10/11 06:11:52;;;;;;;;;37.25;29.00;;;;;21.20;46.27;102295.09;5018223;28;45246;-55
2021/10/11 06:14:20;;;;;;;;;42.00;35.75;;;;;21.19;46.34;102288.09;5033747;28;45553;-55
2021/10/11 06:16:45;;;;;;;;;34.00;32.25;;;;;21.18;46.28;102295.16;5017914;28;45474;-55
2021/10/11 06:19:11;;;;;;;;;31.75;31.00;;;;;21.20;46.30;102300.34;5018031;28;45397;-53
2021/10/11 06:21:36;;;;;;;;;34.25;32.25;;;;;21.19;46.53;102296.00;5018335;28;45373;-53
2021/10/11 06:24:05;;;;;;;;;31.75;31.25;;;;;21.19;46.56;102301.28;5018223;28;45575;-53
2021/10/11 06:26:30;;;;;;;;;27.50;27.00;;;;;21.19;46.23;102310.06;5017792;28;45242;-56
2021/10/11 06:28:56;;;;;;;;;30.75;28.75;;;;;21.17;46.64;102302.19;5017978;28;45262;-51
2021/10/11 06:31:21;;;;;;;;;30.50;26.25;;;;;21.17;46.42;102307.44;5017964;28;45234;-55
2021/10/11 06:33:46;;;;;;;;;29.25;27.25;;;;;21.17;46.29;102306.59;5018155;28;45658;-55
2021/10/11 06:36:12;;;;;;;;;29.50;27.25;;;;;21.17;46.51;102304.81;5017195;28;45468;-56
2021/10/11 06:38:38;;;;;;;;;27.25;26.50;;;;;21.17;46.47;102307.44;5017833;28;45311;-51
2021/10/11 06:41:03;;;;;;;;;26.75;26.00;;;;;21.16;46.50;102311.03;5017429;28;45322;-54
2021/10/11 06:43:29;;;;;;;;;27.25;26.50;;;;;21.17;46.55;102306.59;5017862;28;45428;-55
2021/10/11 06:45:54;;;;;;;;;25.50;21.75;;;;;21.17;46.29;102307.44;5017399;28;45505;-52
2021/10/11 06:48:21;;;;;;;;;23.25;21.75;;;;;21.18;46.54;102313.59;5017521;28;45450;-51
2021/10/11 06:50:46;;;;;;;;;26.25;23.00;;;;;21.17;46.20;102322.44;5017844;28;45336;-52
2021/10/11 06:53:12;;;;;;;;;24.75;21.25;;;;;21.19;46.57;102322.38;5017662;28;45614;-49
2021/10/11 06:55:37;;;;;;;;;21.75;17.75;;;;;21.18;46.24;102329.44;5017507;28;45432;-51
2021/10/11 06:58:02;;;;;;;;;23.50;20.25;;;;;21.19;46.73;102319.72;4999698;28;45370;-52
2021/10/11 07:00:28;;;;;;;;;19.25;17.50;;;;;21.18;45.69;102316.25;5017579;28;45429;-53
2021/10/11 07:02:53;;;;;;;;;18.00;15.25;;;;;21.20;46.49;102313.53;5017498;28;45398;-54
2021/10/11 07:05:19;;;;;;;;;14.75;14.75;;;;;21.17;46.34;102310.09;5017356;28;45447;-49
2021/10/11 07:07:45;;;;;;;;;12.75;12.50;;;;;21.18;46.47;102308.34;5017368;28;45262;-49
2021/10/11 07:10:11;;;;;;;;;18.00;16.50;;;;;21.18;45.98;102313.59;5017705;28;45310;-54
2021/10/11 07:12:36;;;;;;;;;15.50;15.50;;;;;21.18;46.10;102318.88;5017669;28;45221;-53
2021/10/11 07:15:02;;;;;;;;;15.50;13.00;;;;;21.17;46.25;102319.78;5017156;28;46527;-53
2021/10/11 07:17:28;;;;;;;;;15.75;15.25;;;;;21.14;46.30;102310.22;5017351;28;45869;-51
2021/10/11 07:19:53;;;;;;;;;13.00;13.00;;;;;21.14;46.12;102314.63;5017411;28;45472;-53
2021/10/11 07:22:19;;;;;;;;;13.00;12.00;;;;;21.12;46.27;102321.72;5017423;28;45345;-55
2021/10/11 07:24:46;;;;;;;;;13.00;13.00;;;;;21.15;46.13;102325.13;5016896;28;45325;-54
2021/10/11 07:27:12;;;;;;;;;11.75;11.00;;;;;21.14;45.86;102336.59;4999418;28;45829;-53
2021/10/11 07:29:38;;;;;;;;;13.25;11.75;;;;;21.14;45.77;102336.59;5017324;28;45629;-54
2021/10/11 07:32:05;;;;;;;;;11.00;10.75;;;;;21.14;45.92;102341.84;5017260;28;45835;-54
2021/10/11 07:34:30;;;;;;;;;12.00;10.00;;;;;21.14;46.25;102356.78;5016756;28;46391;-56
2021/10/11 07:36:55;;;;;;;;;14.00;10.00;;;;;21.14;45.72;102354.16;5016887;28;45361;-55
2021/10/11 07:39:21;;;;;;;;;9.00;9.00;;;;;21.14;45.65;102357.69;5016932;28;45309;-54
2021/10/11 07:41:46;;;;;;;;;11.00;9.00;;;;;21.14;45.96;102359.44;5017041;28;45340;-55
2021/10/11 07:44:11;;;;;;;;;8.00;7.00;;;;;21.14;46.00;102359.44;5017067;28;45481;-54
2021/10/11 07:46:38;;;;;;;;;10.25;10.00;;;;;21.17;45.63;102364.63;5015876;28;45218;-53
2021/10/11 07:49:04;;;;;;;;;10.50;8.25;;;;;21.17;45.70;102362.81;5017033;28;45448;-53
2021/10/11 07:51:29;;;;;;;;;7.25;7.25;;;;;21.18;45.66;102363.69;5016918;28;45567;-52
2021/10/11 07:53:55;;;;;;;;;10.75;10.00;;;;;21.17;45.54;102362.81;5016610;28;45501;-53
2021/10/11 07:56:20;;;;;;;;;6.00;6.00;;;;;21.19;45.84;102367.19;5016648;28;45386;-54
2021/10/11 07:58:46;;;;;;;;;9.00;8.00;;;;;21.20;45.61;102363.63;5016715;28;45278;-54
2021/10/11 08:01:11;;;;;;;;;11.00;9.00;;;;;21.18;45.60;102361.06;5017088;28;45405;-54
2021/10/11 08:03:36;;;;;;;;;6.00;6.00;;;;;21.21;45.67;102362.72;5016328;28;45379;-54
2021/10/11 08:06:04;;;;;;;;;7.50;6.50;;;;;21.20;45.94;102375.06;5016424;28;45429;-53
2021/10/11 08:08:31;;;;;;;;;8.50;8.50;;;;;21.20;45.79;102377.69;5016611;28;45234;-53
2021/10/11 08:10:57;;;;;;;;;7.00;7.00;;;;;21.18;45.46;102374.25;5016749;28;45231;-54
2021/10/11 08:13:23;;;;;;;;;8.00;8.00;;;;;21.22;45.56;102377.63;5016282;28;45336;-52
2021/10/11 08:15:48;;;;;;;;;8.00;5.75;;;;;21.22;45.21;102378.47;5031616;28;45402;-54
2021/10/11 08:18:14;;;;;;;;;8.00;8.00;;;;;21.21;45.29;102382.06;5016688;28;45744;-54
2021/10/11 08:20:41;;;;;;;;;6.25;6.00;;;;;21.23;45.37;102380.22;5016643;28;45585;-53
2021/10/11 08:23:07;;;;;;;;;6.00;6.00;;;;;21.22;44.88;102372.38;5016227;28;46121;-53
2021/10/11 08:25:33;;;;;;;;;8.50;6.50;;;;;21.25;44.90;102377.53;5016179;28;45290;-54
2021/10/11 08:27:58;;;;;;;;;6.00;6.00;;;;;21.24;44.99;102381.94;5016485;28;45444;-51
2021/10/11 08:30:23;;;;;;;;;6.00;5.00;;;;;21.24;44.97;102384.56;4998692;28;45282;-55
2021/10/11 08:32:49;;;;;;;;;6.00;6.00;;;;;21.25;45.17;102377.53;5031422;28;47220;-54
2021/10/11 08:35:14;;;;;;;;;5.00;4.25;;;;;21.23;45.00;102376.72;5016500;28;45243;-54
2021/10/11 08:37:39;;;;;;;;;4.00;3.75;;;;;21.26;44.79;102385.38;5016226;28;45230;-54
2021/10/11 08:40:05;;;;;;;;;7.50;4.00;;;;;21.25;44.66;102380.19;5016452;28;45517;-54
2021/10/11 08:42:31;;;;;;;;;7.25;5.75;;;;;21.22;44.85;102365.31;5016141;28;46585;-56
2021/10/11 08:44:57;;;;;;;;;5.25;4.75;;;;;21.23;44.60;102377.56;4998266;28;45428;-52
2021/10/11 08:47:22;;;;;;;;;7.00;6.00;;;;;21.21;44.26;102382.06;5016167;28;45338;-53
2021/10/11 08:49:50;;;;;;;;;4.00;4.00;;;;;21.23;44.74;102382.84;5016302;28;45425;-55
2021/10/11 08:52:18;;;;;;;;;6.25;3.00;;;;;21.21;44.16;102374.16;5015799;28;45451;-54
2021/10/11 08:54:43;;;;;;;;;7.75;5.00;;;;;21.21;44.39;102387.34;5016389;28;45704;-54
2021/10/11 08:57:26;;;;;;;;;4.00;4.00;;;;;21.21;43.99;102392.59;5012453;28;45397;-51
2021/10/11 08:59:53;;;;;;;;;4.75;3.50;;;;;21.21;44.38;102391.72;5018602;28;45475;-51
2021/10/11 09:02:20;;;;;;;;;4.00;4.00;;;;;21.21;44.39;102397.00;5001192;28;47331;-52
2021/10/11 09:04:56;;;;;;;;;4.00;3.50;;;;;21.20;44.17;102390.88;5000772;28;45360;-50
2021/10/11 09:07:27;;;;;;;;;5.00;4.00;;;;;21.19;44.06;102394.44;5001046;28;45467;-50
2021/10/11 09:09:54;;;;;;;;;2.50;2.50;;;;;21.20;44.29;102390.88;5019302;28;45703;-51
2021/10/11 09:12:22;;;;;;;;;4.00;4.00;;;;;21.20;44.48;102385.63;5018222;28;45598;-50
2021/10/11 09:15:09;;;;;;;;;4.50;4.50;;;;;21.20;44.40;102395.28;5018905;28;45278;-47
2021/10/11 09:17:41;;;;;;;;;4.00;4.00;;;;;21.21;44.10;102407.56;5000476;28;45471;-50
2021/10/11 09:20:11;;;;;;;;;5.00;3.50;;;;;21.23;44.45;102403.09;5018896;28;45486;-49
2021/10/11 09:22:38;;;;;;;;;4.00;4.00;;;;;21.21;44.19;102405.78;5018809;28;46201;-46
2021/10/11 09:25:06;;;;;;;;;6.00;3.00;;;;;21.20;44.07;102398.78;5019109;28;45613;-49
2021/10/11 09:27:52;;;;;;;;;4.25;3.00;;;;;21.20;44.05;102401.44;5018836;28;45357;-51
2021/10/11 09:30:20;;;;;;;;;5.50;4.50;;;;;21.20;44.01;102396.16;5019589;28;45207;-51
2021/10/11 09:32:46;;;;;;;;;3.00;3.00;;;;;21.19;44.00;102399.72;5018972;28;48566;-54
2021/10/11 09:35:19;;;;;;;;;3.00;3.00;;;;;21.19;43.73;102394.44;5018896;28;45404;-52
2021/10/11 09:37:55;;;;;;;;;4.75;3.75;;;;;21.19;43.90;102388.28;5019212;28;45382;-54
2021/10/11 09:40:22;;;;;;;;;4.25;3.00;;;;;21.19;43.97;102381.25;5019190;28;45382;-52
2021/10/11 09:42:48;;;;;;;;;2.75;2.75;;;;;21.17;43.53;102381.28;5018888;28;46630;-50
2021/10/11 09:45:14;;;;;;;;;6.25;4.00;;;;;21.20;43.32;102384.72;5018752;28;45353;-47
2021/10/11 09:47:45;;;;;;;;;6.25;4.50;;;;;21.19;43.44;102385.63;5018821;28;45256;-50
2021/10/11 09:50:12;;;;;;;;;3.00;3.00;;;;;21.19;43.51;102388.28;5019041;28;45443;-48
2021/10/11 09:52:39;;;;;;;;;4.25;3.00;;;;;21.19;43.99;102394.44;5018539;28;45527;-49
2021/10/11 09:55:06;;;;;;;;;3.00;3.00;;;;;21.18;43.46;102384.78;5018495;28;45234;-55
2021/10/11 09:57:32;;;;;;;;;3.75;3.00;;;;;21.16;43.69;102378.72;5018524;28;45203;-49
2021/10/11 10:00:09;;;;;;;;;3.25;2.25;;;;;21.15;43.30;102382.25;5018691;28;45546;-50
2021/10/11 10:02:39;;;;;;;;;3.75;3.75;;;;;21.14;43.38;102375.25;5018175;28;45546;-53
2021/10/11 10:05:11;;;;;;;;;3.00;3.00;;;;;21.14;43.29;102375.25;5018388;28;45861;-53
2021/10/11 10:07:47;;;;;;;;;3.00;3.00;;;;;21.13;43.44;102381.44;5016819;28;45320;-51
2021/10/11 10:10:13;;;;;;;;;3.25;2.75;;;;;21.12;43.06;102382.34;5017781;28;45250;-50
2021/10/11 10:12:49;;;;;;;;;4.00;3.00;;;;;21.10;42.97;102377.13;5018057;28;45574;-48
2021/10/11 10:15:45;;;;;;;;;2.25;2.25;;;;;21.09;42.89;102377.19;5018506;28;45353;-54
2021/10/11 10:18:13;;;;;;;;;6.75;2.25;;;;;21.08;42.87;102384.22;4984008;28;45439;-54
2021/10/11 10:20:57;;;;;;;;;4.50;4.00;;;;;21.07;42.53;102379.00;5018580;28;45495;-54
2021/10/11 10:23:23;;;;;;;;;2.00;2.00;;;;;21.08;42.79;102376.31;5018026;28;45640;-55
2021/10/11 10:25:48;;;;;;;;;1.50;1.50;;;;;21.06;42.47;102382.56;5018178;28;45797;-52
2021/10/11 10:28:15;;;;;;;;;3.00;3.00;;;;;21.03;42.24;102374.75;5017998;28;45401;-51
2021/10/11 10:30:41;;;;;;;;;3.00;3.00;;;;;21.04;42.36;102376.47;5018222;28;45482;-50
2021/10/11 10:33:09;;;;;;;;;5.00;2.25;;;;;21.02;42.55;102376.53;4999977;28;47919;-51
2021/10/11 10:35:44;;;;;;;;;3.75;3.75;;;;;21.03;42.38;102377.38;5017788;28;45277;-49
2021/10/11 10:38:19;;;;;;;;;3.00;2.50;;;;;21.02;41.88;102384.44;5017804;28;45377;-49
2021/10/11 10:40:45;;;;;;;;;3.50;2.00;;;;;21.00;42.16;102368.66;5018177;28;45326;-54
2021/10/11 10:43:15;;;;;;;;;3.75;1.50;;;;;21.00;41.87;102373.09;5017578;28;45245;-52
2021/10/11 10:45:42;;;;;;;;;1.00;1.00;;;;;21.01;41.95;102380.09;5017615;28;45396;-50
2021/10/11 10:48:22;;;;;;;;;4.00;2.25;;;;;21.00;41.70;102373.94;5017801;28;45459;-53
2021/10/11 10:50:48;;;;;;;;;2.75;2.00;;;;;21.00;41.96;102376.56;5018168;28;45245;-55
2021/10/11 10:53:14;;;;;;;;;4.25;2.00;;;;;21.00;41.64;102379.19;5017852;28;46105;-53
2021/10/11 10:55:41;;;;;;;;;3.00;2.00;;;;;21.00;41.42;102376.56;5017533;28;45488;-51
2021/10/11 10:58:10;;;;;;;;;3.50;3.00;;;;;20.99;41.48;102379.25;5017732;28;45455;-53
2021/10/11 11:00:36;;;;;;;;;4.00;2.25;;;;;20.99;41.25;102379.25;5017760;28;45642;-54
2021/10/11 11:03:01;;;;;;;;;3.00;3.00;;;;;20.98;41.37;102377.53;4999454;28;47592;-52
2021/10/11 11:05:29;;;;;;;;;2.00;2.00;;;;;20.99;41.45;102382.78;5017377;28;45409;-51
2021/10/11 11:07:56;;;;;;;;;2.00;2.00;;;;;21.01;41.20;102390.63;5017502;28;45320;-52
2021/10/11 11:10:24;;;;;;;;;3.00;3.00;;;;;21.00;41.10;102389.75;5017959;28;45428;-51